Time;durP1;ratioP1;P1;durP2;ratioP2;P2;SDS_P1;SDS_P2;PMS_P1;PMS_P2;Temp;Humidity;BMP_temperature;BMP_pressure;BME280_temperature;BME280_humidity;BME280_pressure;Samples;Min_cycle;Max_cycle;Signal;HPM_P1;HPM_P2
2022/06/19 00:01:28;;;;;;;9.30;5.00;;;24.90;81.80;;;;;;6106809;23;20495;-80
2022/06/19 00:03:56;;;;;;;9.07;5.03;;;24.90;81.80;;;;;;6118879;23;20597;-80
2022/06/19 00:06:24;;;;;;;7.40;4.30;;;24.90;81.50;;;;;;6118839;23;20469;-80
2022/06/19 00:08:52;;;;;;;9.93;4.53;;;24.90;81.40;;;;;;6111461;23;20760;-80
2022/06/19 00:11:22;;;;;;;7.57;4.70;;;24.90;81.40;;;;;;6117688;23;20932;-80
2022/06/19 00:13:50;;;;;;;8.80;4.47;;;24.90;81.60;;;;;;6119516;23;20471;-79
2022/06/19 00:16:18;;;;;;;7.80;4.60;;;24.90;81.70;;;;;;6119018;23;20602;-79
2022/06/19 00:18:45;;;;;;;10.80;4.80;;;24.80;81.70;;;;;;6117269;23;20441;-80
2022/06/19 00:21:15;;;;;;;7.73;4.60;;;24.80;81.50;;;;;;6119829;23;20445;-80
2022/06/19 00:23:43;;;;;;;8.90;4.57;;;24.80;82.10;;;;;;6117415;23;20531;-79
2022/06/19 00:26:10;;;;;;;8.97;5.17;;;24.70;81.50;;;;;;6115844;23;20483;-80
2022/06/19 00:28:40;;;;;;;8.97;4.67;;;24.70;81.30;;;;;;6120265;23;20441;-79
2022/06/19 00:31:07;;;;;;;9.50;4.90;;;24.70;81.60;;;;;;6123015;23;20440;-79
2022/06/19 00:33:34;;;;;;;7.97;4.63;;;24.70;82.10;;;;;;6128849;23;20461;-79
2022/06/19 00:36:01;;;;;;;7.90;4.80;;;24.70;82.30;;;;;;6127841;23;20532;-80
2022/06/19 00:38:29;;;;;;;6.90;4.80;;;24.70;82.60;;;;;;6128976;23;21008;-79
2022/06/19 00:40:57;;;;;;;9.97;5.30;;;24.60;82.80;;;;;;6119055;23;20465;-79
2022/06/19 00:43:24;;;;;;;13.17;6.13;;;24.60;83.10;;;;;;6113594;23;20591;-80
2022/06/19 00:45:53;;;;;;;9.13;4.57;;;24.50;83.30;;;;;;6123768;23;20532;-79
2022/06/19 00:48:25;;;;;;;10.67;5.73;;;24.50;83.50;;;;;;6131370;23;21048;-79
2022/06/19 00:50:54;;;;;;;8.23;5.40;;;24.50;83.80;;;;;;6132585;23;20520;-80
2022/06/19 00:53:24;;;;;;;9.60;5.57;;;24.50;84.10;;;;;;6128935;23;20463;-79
2022/06/19 00:55:52;;;;;;;9.93;5.57;;;24.40;84.30;;;;;;6115673;23;20433;-79
2022/06/19 00:58:24;;;;;;;9.90;5.10;;;24.40;84.60;;;;;;6112647;23;20441;-80
2022/06/19 01:00:57;;;;;;;8.80;5.33;;;24.30;85.00;;;;;;6119252;23;20473;-80
2022/06/19 01:03:30;;;;;;;10.53;5.13;;;24.30;85.00;;;;;;6119106;23;20476;-79
2022/06/19 01:05:57;;;;;;;9.70;5.20;;;24.20;85.40;;;;;;6118867;23;20469;-80
2022/06/19 01:08:24;;;;;;;10.57;5.03;;;24.10;85.80;;;;;;6112735;23;20844;-80
2022/06/19 01:10:53;;;;;;;9.70;4.63;;;24.00;85.70;;;;;;6111471;23;20743;-80
2022/06/19 01:13:23;;;;;;;8.97;4.73;;;24.00;85.70;;;;;;6117647;23;20500;-79
2022/06/19 01:15:51;;;;;;;7.07;4.70;;;24.00;86.20;;;;;;6117432;23;20484;-80
2022/06/19 01:18:21;;;;;;;14.33;4.63;;;24.00;85.80;;;;;;6119381;23;20449;-80
2022/06/19 01:20:49;;;;;;;8.73;4.50;;;23.90;85.90;;;;;;6117326;23;20450;-79
2022/06/19 01:23:25;;;;;;;7.17;4.23;;;23.90;86.30;;;;;;6115814;23;20972;-80
2022/06/19 01:25:54;;;;;;;6.73;4.60;;;23.90;86.60;;;;;;6115580;23;20556;-80
2022/06/19 01:31:10;;;;;;;9.10;4.57;;;23.70;87.80;;;;;;6118274;23;20445;-79
2022/06/19 01:33:41;;;;;;;10.17;4.30;;;23.70;87.80;;;;;;6117503;23;20534;-80
2022/06/19 01:36:12;;;;;;;9.00;5.40;;;23.50;87.90;;;;;;6118284;23;20434;-80
2022/06/19 01:38:41;;;;;;;7.63;4.77;;;23.40;88.30;;;;;;6071807;22;20478;-82
2022/06/19 01:41:23;;;;;;;10.07;4.70;;;23.40;89.00;;;;;;6066650;23;20451;-81
2022/06/19 01:43:50;;;;;;;12.40;5.67;;;23.30;89.50;;;;;;6033841;23;20452;-82
2022/06/19 01:46:18;;;;;;;10.23;5.17;;;23.20;89.60;;;;;;6035787;23;20495;-82
2022/06/19 01:48:46;;;;;;;6.97;4.67;;;23.10;89.60;;;;;;6032135;23;20467;-82
2022/06/19 01:51:14;;;;;;;10.37;4.83;;;23.10;89.90;;;;;;6033320;23;20460;-82
2022/06/19 01:53:46;;;;;;;9.57;4.70;;;23.00;90.10;;;;;;6034663;23;20452;-81
2022/06/19 01:56:15;;;;;;;9.10;4.80;;;23.00;90.20;;;;;;6032178;23;20448;-81
2022/06/19 01:58:48;;;;;;;7.63;4.67;;;23.00;90.50;;;;;;6034602;23;20445;-82
2022/06/19 02:01:15;;;;;;;8.67;4.50;;;22.90;90.50;;;;;;6024946;23;20440;-81
2022/06/19 02:03:45;;;;;;;7.17;4.50;;;22.90;90.60;;;;;;6030955;23;20441;-81
2022/06/19 02:06:16;;;;;;;8.77;4.80;;;23.00;90.70;;;;;;6032500;23;20468;-82
2022/06/19 02:08:45;;;;;;;12.13;4.37;;;23.00;90.80;;;;;;6032366;23;20436;-82
2022/06/19 02:11:15;;;;;;;10.93;4.63;;;23.00;90.80;;;;;;6031922;23;20458;-82
2022/06/19 02:13:42;;;;;;;17.20;5.13;;;23.00;90.80;;;;;;6031763;23;20447;-81
2022/06/19 02:16:12;;;;;;;11.90;5.23;;;23.00;90.80;;;;;;6035883;23;20926;-81
2022/06/19 02:18:43;;;;;;;8.80;5.33;;;23.00;90.80;;;;;;6032122;23;21003;-82
2022/06/19 02:21:18;;;;;;;9.13;4.40;;;23.00;91.00;;;;;;6032979;23;20466;-81
2022/06/19 02:23:46;;;;;;;7.57;4.73;;;23.00;91.50;;;;;;6033531;23;20521;-81
2022/06/19 02:26:15;;;;;;;9.20;4.67;;;23.00;91.70;;;;;;6031962;23;20515;-81
2022/06/19 02:28:47;;;;;;;10.33;5.43;;;23.00;92.00;;;;;;6032196;23;20484;-81
2022/06/19 02:31:16;;;;;;;6.30;4.73;;;22.90;92.30;;;;;;6033629;23;20491;-81
2022/06/19 02:33:47;;;;;;;10.27;5.60;;;22.90;92.10;;;;;;6013680;23;21028;-81
2022/06/19 02:36:37;;;;;;;8.17;5.30;;;22.90;92.60;;;;;;6031283;23;20514;-81
2022/06/19 02:39:21;;;;;;;8.33;4.57;;;22.90;92.70;;;;;;6031741;23;20452;-81
2022/06/19 02:41:56;;;;;;;10.90;5.53;;;22.90;92.60;;;;;;6030629;23;21047;-81
2022/06/19 02:44:30;;;;;;;9.43;5.20;;;22.90;92.80;;;;;;6030570;23;20467;-81
2022/06/19 02:46:57;;;;;;;5.77;4.40;;;22.90;92.80;;;;;;6034760;23;20475;-81
2022/06/19 02:49:24;;;;;;;9.90;5.17;;;22.90;93.10;;;;;;6054581;23;20451;-81
2022/06/19 02:51:51;;;;;;;10.67;5.53;;;22.90;93.30;;;;;;6037462;23;20999;-81
2022/06/19 02:54:18;;;;;;;12.47;5.20;;;22.90;92.70;;;;;;6025590;23;20448;-81
2022/06/19 02:56:45;;;;;;;8.87;4.90;;;22.90;93.00;;;;;;6031910;23;20825;-81
2022/06/19 02:59:13;;;;;;;11.63;5.30;;;22.90;93.40;;;;;;6032864;23;20440;-81
2022/06/19 03:01:41;;;;;;;9.00;5.67;;;22.90;93.90;;;;;;6032054;23;20464;-81
2022/06/19 03:04:17;;;;;;;9.40;6.00;;;22.80;94.30;;;;;;6032957;23;20444;-81
2022/06/19 03:06:44;;;;;;;10.63;5.57;;;22.70;94.50;;;;;;6032433;23;20966;-81
2022/06/19 03:09:11;;;;;;;7.90;4.60;;;22.50;94.90;;;;;;6031249;23;20800;-81
2022/06/19 03:11:38;;;;;;;6.47;4.87;;;22.50;95.20;;;;;;6035259;23;20562;-80
2022/06/19 03:14:05;;;;;;;14.07;6.07;;;22.40;95.60;;;;;;6039511;23;20444;-81
2022/06/19 03:16:34;;;;;;;8.50;6.20;;;22.40;95.70;;;;;;6033166;23;20439;-81
2022/06/19 03:19:01;;;;;;;12.17;5.23;;;22.30;95.80;;;;;;6033862;23;20555;-81
2022/06/19 03:21:28;;;;;;;10.57;5.40;;;22.20;95.90;;;;;;6035147;23;20475;-81
2022/06/19 03:23:55;;;;;;;9.33;5.87;;;22.20;96.20;;;;;;6029844;23;20547;-81
2022/06/19 03:26:22;;;;;;;14.07;5.93;;;22.20;96.40;;;;;;6032340;23;20470;-81
2022/06/19 03:28:49;;;;;;;8.27;5.10;;;22.10;96.70;;;;;;6035514;23;20440;-81
2022/06/19 03:31:20;;;;;;;9.20;5.53;;;22.10;97.10;;;;;;6034532;23;20467;-81
2022/06/19 03:33:49;;;;;;;10.43;5.43;;;22.00;97.60;;;;;;6032775;23;20450;-81
2022/06/19 03:36:16;;;;;;;11.80;5.70;;;21.80;98.10;;;;;;6033299;23;20527;-81
2022/06/19 03:38:43;;;;;;;12.30;6.13;;;21.70;98.60;;;;;;6033614;23;20462;-81
2022/06/19 03:41:10;;;;;;;9.03;5.73;;;21.70;99.20;;;;;;6033264;23;20460;-81
2022/06/19 03:43:37;;;;;;;7.80;5.27;;;21.60;99.70;;;;;;6033449;23;20440;-81
2022/06/19 03:46:12;;;;;;;11.27;6.40;;;21.50;99.90;;;;;;6035766;23;20468;-81
2022/06/19 03:48:40;;;;;;;13.93;5.93;;;21.40;99.90;;;;;;6033491;23;20954;-81
2022/06/19 03:51:08;;;;;;;12.20;5.70;;;21.40;99.90;;;;;;6033393;23;20883;-82
2022/06/19 03:53:36;;;;;;;10.23;5.40;;;21.40;99.90;;;;;;6031845;23;20523;-82
2022/06/19 03:56:03;;;;;;;8.33;5.50;;;21.40;99.90;;;;;;6036864;23;20448;-81
2022/06/19 03:58:45;;;;;;;10.30;5.43;;;21.40;99.90;;;;;;6034532;23;20459;-81
2022/06/19 04:01:13;;;;;;;7.17;5.70;;;21.40;99.90;;;;;;6024953;23;20988;-81
2022/06/19 04:03:40;;;;;;;11.60;5.40;;;21.40;99.90;;;;;;6031518;23;20440;-81
2022/06/19 04:06:09;;;;;;;10.37;5.67;;;21.40;99.90;;;;;;6032879;23;20464;-81
2022/06/19 04:08:36;;;;;;;10.03;5.47;;;21.40;99.90;;;;;;6033325;23;20445;-81
2022/06/19 04:11:04;;;;;;;9.43;4.80;;;21.40;99.90;;;;;;6032266;23;20464;-81
2022/06/19 04:13:32;;;;;;;9.37;5.13;;;21.30;99.90;;;;;;6032781;23;20462;-81
2022/06/19 04:15:59;;;;;;;8.20;4.90;;;21.30;99.90;;;;;;6033833;23;20444;-81
2022/06/19 04:18:29;;;;;;;11.07;5.67;;;21.30;99.90;;;;;;6033733;23;20448;-81
2022/06/19 04:20:56;;;;;;;7.57;5.03;;;21.20;99.90;;;;;;6033073;23;20440;-81
2022/06/19 04:23:25;;;;;;;8.67;5.90;;;21.20;99.90;;;;;;6036454;23;20532;-81
2022/06/19 04:25:53;;;;;;;9.60;5.57;;;21.20;99.90;;;;;;6038133;23;20444;-81
2022/06/19 04:28:23;;;;;;;10.27;5.10;;;21.20;99.90;;;;;;6036120;23;21014;-81
2022/06/19 04:30:51;;;;;;;8.13;4.67;;;21.30;99.90;;;;;;6033169;23;20437;-81
2022/06/19 04:33:19;;;;;;;7.40;4.67;;;21.30;99.90;;;;;;6032543;23;21002;-81
2022/06/19 04:35:47;;;;;;;10.13;5.00;;;21.40;99.90;;;;;;6038825;23;20444;-81
2022/06/19 04:38:14;;;;;;;6.80;5.17;;;21.30;99.90;;;;;;6025865;23;20452;-82
2022/06/19 04:40:43;;;;;;;6.77;4.60;;;21.40;99.90;;;;;;6033717;23;20446;-81
2022/06/19 04:43:11;;;;;;;8.13;5.17;;;21.50;99.90;;;;;;6033043;23;20450;-81
2022/06/19 04:45:39;;;;;;;9.17;5.50;;;21.50;99.90;;;;;;6025045;23;20449;-81
2022/06/19 04:48:06;;;;;;;10.33;4.60;;;21.60;99.90;;;;;;6033576;23;20484;-81
2022/06/19 04:50:33;;;;;;;9.10;4.57;;;21.60;99.90;;;;;;6041693;23;20475;-81
2022/06/19 04:53:00;;;;;;;8.83;4.30;;;21.70;99.90;;;;;;6032989;23;20464;-82
2022/06/19 04:55:27;;;;;;;8.73;4.83;;;21.70;99.90;;;;;;6035887;23;20527;-81
2022/06/19 04:58:00;;;;;;;10.47;5.20;;;21.80;99.90;;;;;;6036220;23;20451;-81
2022/06/19 05:00:28;;;;;;;8.13;4.50;;;21.80;99.90;;;;;;6033107;23;20441;-81
2022/06/19 05:02:55;;;;;;;9.13;4.50;;;22.00;99.90;;;;;;6031844;23;21253;-81
2022/06/19 05:05:23;;;;;;;10.57;4.13;;;22.00;99.90;;;;;;6038402;23;21373;-81
2022/06/19 05:07:50;;;;;;;11.00;4.80;;;22.10;99.90;;;;;;6053142;23;20487;-81
2022/06/19 05:10:18;;;;;;;9.80;4.53;;;22.10;99.90;;;;;;6032203;23;21014;-81
2022/06/19 05:12:45;;;;;;;8.40;4.20;;;22.20;99.90;;;;;;6034858;23;20563;-81
2022/06/19 05:15:14;;;;;;;7.97;4.50;;;22.20;99.90;;;;;;6033322;23;20454;-81
2022/06/19 05:17:41;;;;;;;7.80;4.10;;;22.30;99.90;;;;;;6033529;23;20448;-81
2022/06/19 05:20:09;;;;;;;8.30;5.40;;;22.40;99.90;;;;;;6033303;23;20532;-81
2022/06/19 05:22:36;;;;;;;6.30;4.70;;;22.50;99.90;;;;;;6035642;23;20987;-81
2022/06/19 05:25:08;;;;;;;9.23;4.30;;;22.50;99.90;;;;;;6033307;23;20440;-81
2022/06/19 05:27:37;;;;;;;8.13;4.20;;;22.60;99.90;;;;;;6031489;23;20530;-81
2022/06/19 05:30:06;;;;;;;8.93;4.27;;;22.60;99.90;;;;;;6036901;23;20440;-81
2022/06/19 05:32:34;;;;;;;10.90;4.70;;;22.70;99.90;;;;;;6032075;23;20460;-81
2022/06/19 05:35:01;;;;;;;7.40;4.17;;;22.70;99.90;;;;;;6035712;23;20440;-81
2022/06/19 05:37:28;;;;;;;10.30;4.77;;;22.90;99.90;;;;;;6031607;23;20455;-81
2022/06/19 05:39:55;;;;;;;10.53;5.00;;;22.90;99.90;;;;;;6034043;23;20446;-81
2022/06/19 05:42:22;;;;;;;14.60;5.00;;;22.90;99.90;;;;;;6031395;23;20464;-81
2022/06/19 05:44:50;;;;;;;8.63;4.50;;;23.00;99.90;;;;;;6048573;23;20454;-80
2022/06/19 05:47:17;;;;;;;10.83;5.47;;;23.00;99.90;;;;;;6033573;23;20971;-81
2022/06/19 05:49:45;;;;;;;9.40;4.40;;;23.10;99.90;;;;;;6032578;23;20451;-80
2022/06/19 05:52:19;;;;;;;6.90;4.40;;;23.20;99.90;;;;;;6032017;23;20466;-81
2022/06/19 05:54:47;;;;;;;8.37;4.20;;;23.30;99.90;;;;;;6032932;23;20781;-81
2022/06/19 05:57:14;;;;;;;11.37;4.50;;;23.40;99.90;;;;;;6033660;23;20539;-81
2022/06/19 05:59:41;;;;;;;10.00;5.10;;;23.50;99.90;;;;;;6034871;23;20462;-81
2022/06/19 06:02:10;;;;;;;8.63;4.60;;;23.60;99.90;;;;;;6036005;23;20538;-80
2022/06/19 06:04:37;;;;;;;8.20;4.63;;;23.70;99.90;;;;;;6031059;23;20452;-81
2022/06/19 06:07:06;;;;;;;9.50;4.60;;;23.90;99.90;;;;;;6033864;23;20464;-81
2022/06/19 06:09:34;;;;;;;8.30;3.83;;;24.00;99.90;;;;;;6032898;23;20502;-81
2022/06/19 06:12:02;;;;;;;7.60;4.20;;;24.10;99.90;;;;;;6033161;23;20517;-81
2022/06/19 06:14:29;;;;;;;9.17;4.90;;;24.30;99.90;;;;;;6029362;23;20518;-81
2022/06/19 06:16:56;;;;;;;8.50;4.43;;;24.30;99.90;;;;;;6029994;23;20444;-81
2022/06/19 06:19:24;;;;;;;10.23;5.10;;;24.50;99.90;;;;;;6032522;23;20440;-81
2022/06/19 06:21:51;;;;;;;9.57;4.13;;;24.60;99.90;;;;;;6055237;23;20474;-81
2022/06/19 06:24:19;;;;;;;12.77;4.97;;;24.70;99.90;;;;;;6036459;23;21085;-81
2022/06/19 06:26:46;;;;;;;10.33;4.50;;;24.90;99.90;;;;;;6051215;23;20468;-81
2022/06/19 06:29:13;;;;;;;8.70;4.33;;;25.00;99.80;;;;;;6032920;23;20444;-83
2022/06/19 06:31:40;;;;;;;9.63;4.63;;;25.10;99.30;;;;;;6036547;23;20470;-80
2022/06/19 06:34:07;;;;;;;8.83;4.13;;;25.30;99.60;;;;;;6032427;23;20447;-80
2022/06/19 06:36:34;;;;;;;12.53;4.50;;;25.40;99.10;;;;;;6032431;23;20441;-81
2022/06/19 06:39:01;;;;;;;9.23;4.33;;;25.50;98.10;;;;;;6035416;23;20974;-81
2022/06/19 06:41:29;;;;;;;6.97;4.77;;;25.60;98.20;;;;;;6030315;23;20468;-81
2022/06/19 06:43:56;;;;;;;11.80;4.63;;;25.80;97.90;;;;;;6027970;23;20444;-79
2022/06/19 06:46:25;;;;;;;9.07;4.20;;;25.90;97.60;;;;;;6041680;23;20439;-81
2022/06/19 06:48:54;;;;;;;7.20;4.90;;;26.10;97.40;;;;;;6036824;23;20468;-81
2022/06/19 06:51:24;;;;;;;9.77;4.40;;;26.20;97.70;;;;;;6045832;23;20468;-81
2022/06/19 06:53:51;;;;;;;8.57;4.37;;;26.40;97.40;;;;;;6032831;23;20445;-81
2022/06/19 06:56:19;;;;;;;10.00;4.90;;;26.60;97.30;;;;;;6040180;23;20779;-84
2022/06/19 06:58:48;;;;;;;10.40;5.07;;;26.60;96.90;;;;;;6033702;23;20448;-84
2022/06/19 07:01:18;;;;;;;9.27;4.63;;;26.80;96.90;;;;;;6032152;23;20510;-87
2022/06/19 07:03:47;;;;;;;9.43;4.13;;;27.00;96.20;;;;;;6027712;23;20440;-86
2022/06/19 07:06:15;;;;;;;8.70;3.80;;;27.20;96.00;;;;;;6024680;23;20440;-81
2022/06/19 07:08:42;;;;;;;9.60;4.63;;;27.40;96.60;;;;;;6026019;23;20468;-87
2022/06/19 07:11:16;;;;;;;10.70;4.33;;;27.70;94.90;;;;;;6026892;23;20885;-85
2022/06/19 07:13:44;;;;;;;9.10;3.93;;;27.90;94.70;;;;;;6026808;23;20931;-85
2022/06/19 07:16:12;;;;;;;12.73;4.80;;;28.00;94.00;;;;;;6027114;23;20502;-84
2022/06/19 07:18:39;;;;;;;11.20;4.50;;;28.30;93.90;;;;;;6028243;23;20455;-85
2022/06/19 07:21:06;;;;;;;8.47;4.30;;;28.50;92.90;;;;;;6027966;23;20468;-85
2022/06/19 07:23:33;;;;;;;8.40;4.13;;;28.60;92.80;;;;;;6025432;23;20592;-84
2022/06/19 07:26:00;;;;;;;7.77;4.23;;;28.70;92.60;;;;;;6029356;23;20440;-86
2022/06/19 07:28:27;;;;;;;10.03;4.97;;;28.80;93.00;;;;;;6024901;23;21003;-85
2022/06/19 07:30:55;;;;;;;9.07;4.60;;;28.90;92.30;;;;;;6027042;23;20464;-85
2022/06/19 07:33:23;;;;;;;8.07;4.23;;;29.20;92.10;;;;;;6017069;23;20437;-86
2022/06/19 07:35:50;;;;;;;13.80;5.20;;;29.40;92.00;;;;;;6025108;23;20436;-85
2022/06/19 07:38:17;;;;;;;8.50;5.13;;;29.60;90.10;;;;;;6030111;23;20955;-85
2022/06/19 07:40:45;;;;;;;8.07;4.40;;;29.60;90.10;;;;;;6028718;23;20526;-85
2022/06/19 07:43:12;;;;;;;10.43;4.87;;;29.50;91.00;;;;;;6024850;23;20457;-85
2022/06/19 07:45:40;;;;;;;8.50;4.40;;;29.50;91.00;;;;;;6027705;23;20487;-85
2022/06/19 07:50:55;;;;;;;9.40;4.30;;;30.10;91.10;;;;;;6031512;23;20463;-85
2022/06/19 07:53:23;;;;;;;8.77;4.87;;;30.50;89.80;;;;;;6024234;23;20456;-85
2022/06/19 07:55:50;;;;;;;7.53;4.73;;;31.00;87.70;;;;;;6024530;23;20432;-85
2022/06/19 07:58:17;;;;;;;8.07;4.43;;;31.30;86.20;;;;;;6019430;23;20445;-84
2022/06/19 08:00:44;;;;;;;8.03;4.73;;;31.50;85.90;;;;;;6020905;23;20451;-85
2022/06/19 08:03:11;;;;;;;7.80;4.50;;;31.80;84.70;;;;;;6026115;23;20949;-86
2022/06/19 08:05:40;;;;;;;6.90;5.10;;;32.20;82.80;;;;;;6022563;23;20448;-83
2022/06/19 15:45:11;;;;;;;6.60;6.10;;;49.30;30.70;;;;;;6120289;23;20566;-81
2022/06/19 15:47:58;;;;;;;7.67;6.47;;;48.40;31.60;;;;;;6090094;23;20445;-83
2022/06/19 15:50:29;;;;;;;6.80;6.17;;;47.20;32.60;;;;;;6063492;23;20509;-82
2022/06/19 15:53:00;;;;;;;7.87;6.13;;;46.30;33.10;;;;;;6062504;23;20435;-81
2022/06/19 15:55:34;;;;;;;7.20;5.83;;;45.50;33.50;;;;;;6064559;23;20481;-85
2022/06/19 15:58:09;;;;;;;6.83;6.23;;;44.50;33.70;;;;;;6061890;23;20455;-81
2022/06/19 16:00:38;;;;;;;10.37;6.40;;;43.50;34.60;;;;;;6055704;23;20783;-81
2022/06/19 16:03:14;;;;;;;6.20;5.57;;;42.50;35.30;;;;;;6065656;23;20525;-82
2022/06/19 16:05:43;;;;;;;6.80;6.17;;;41.60;35.90;;;;;;6052570;23;20524;-81
2022/06/19 16:08:16;;;;;;;6.43;5.73;;;40.80;36.80;;;;;;6064619;23;20455;-83
2022/06/19 16:10:53;;;;;;;8.67;6.87;;;40.40;37.40;;;;;;6064181;23;20526;-80
2022/06/19 16:13:24;;;;;;;9.43;5.80;;;39.90;37.40;;;;;;6066248;23;20695;-82
2022/06/19 16:16:16;;;;;;;7.73;6.50;;;39.50;38.50;;;;;;6066923;23;20810;-83
2022/06/19 16:19:00;;;;;;;7.13;6.43;;;39.10;39.30;;;;;;6060308;23;20471;-83
2022/06/19 16:21:28;;;;;;;7.87;6.13;;;38.80;39.70;;;;;;6058117;23;20772;-82
2022/06/19 16:23:56;;;;;;;10.43;6.20;;;38.50;40.00;;;;;;6064472;23;20458;-82
2022/06/19 16:26:26;;;;;;;9.90;6.07;;;38.20;39.80;;;;;;6065971;23;20441;-82
2022/06/19 16:28:56;;;;;;;8.33;6.00;;;38.00;40.40;;;;;;6065590;23;20462;-82
2022/06/19 16:31:27;;;;;;;8.23;6.90;;;37.70;40.10;;;;;;6060152;23;20450;-82
2022/06/19 16:33:58;;;;;;;8.50;6.33;;;37.50;40.40;;;;;;6052547;23;20915;-82
2022/06/19 16:44:51;;;;;;;8.03;6.80;;;36.70;41.50;;;;;;6063340;23;20477;-82
2022/06/19 16:47:25;;;;;;;11.00;6.50;;;36.60;41.60;;;;;;6062787;23;20466;-82
2022/06/19 16:50:01;;;;;;;8.43;5.53;;;36.50;41.30;;;;;;6061941;23;21026;-82
2022/06/19 16:52:30;;;;;;;6.10;5.30;;;36.40;41.00;;;;;;6060165;23;20438;-82
2022/06/19 16:55:00;;;;;;;8.40;5.70;;;36.30;41.70;;;;;;6055730;23;20439;-82
2022/06/19 16:57:31;;;;;;;7.30;5.47;;;36.30;42.00;;;;;;6055815;23;20505;-82
2022/06/19 17:00:04;;;;;;;7.83;6.20;;;36.20;40.40;;;;;;6058981;23;20518;-82
2022/06/19 17:02:34;;;;;;;11.57;5.70;;;36.20;41.40;;;;;;6051447;23;20950;-82
2022/06/19 17:05:07;;;;;;;8.47;5.30;;;36.10;41.20;;;;;;6053891;23;20971;-82
2022/06/19 17:08:40;;;;;;;10.90;6.17;;;36.00;41.50;;;;;;6060149;23;20431;-81
2022/06/19 17:10:24;;;;;;;9.20;5.77;;;36.00;41.40;;;;;;6059748;23;20451;-82
2022/06/19 17:12:52;;;;;;;6.30;5.60;;;35.90;41.70;;;;;;6057822;23;20506;-82
2022/06/19 17:15:20;;;;;;;7.87;5.50;;;35.90;41.20;;;;;;6057443;23;20526;-82
2022/06/19 17:17:49;;;;;;;7.90;5.70;;;35.80;40.90;;;;;;6055879;23;20477;-82
2022/06/19 17:20:22;;;;;;;6.20;5.60;;;35.80;41.30;;;;;;6057341;23;20939;-81
2022/06/19 17:23:01;;;;;;;7.20;6.10;;;35.80;42.10;;;;;;6050608;23;21174;-82
2022/06/19 17:25:31;;;;;;;6.10;5.50;;;35.70;42.50;;;;;;6060253;23;20974;-82
2022/06/19 17:28:00;;;;;;;6.70;6.00;;;35.70;42.10;;;;;;6056406;23;20496;-83
2022/06/19 17:30:30;;;;;;;10.23;6.30;;;35.60;42.60;;;;;;6046232;23;20452;-84
2022/06/19 17:32:58;;;;;;;7.37;5.60;;;35.60;42.80;;;;;;6056003;23;20439;-85
2022/06/19 17:35:42;;;;;;;7.97;5.50;;;35.60;42.60;;;;;;6051684;23;20431;-91
2022/06/19 17:38:33;;;;;;;8.00;4.80;;;35.60;43.10;;;;;;6058737;23;20503;-91
2022/06/19 17:41:03;;;;;;;6.00;5.37;;;35.60;45.00;;;;;;6060087;23;20443;-90
2022/06/19 17:43:33;;;;;;;6.63;4.93;;;35.50;45.10;;;;;;6059608;23;20574;-94
2022/06/19 17:46:05;;;;;;;6.80;5.77;;;35.40;45.10;;;;;;6065315;23;21412;-91
2022/06/19 17:48:36;;;;;;;9.47;6.20;;;35.30;44.30;;;;;;6062491;23;20499;-93
2022/06/19 17:51:31;;;;;;;5.97;5.33;;;35.10;44.10;;;;;;6060952;23;20935;-94
2022/06/19 17:54:00;;;;;;;7.30;4.73;;;34.90;43.50;;;;;;6049639;23;20442;-94
2022/06/19 17:56:49;;;;;;;7.50;5.10;;;34.80;43.60;;;;;;6056261;23;20475;-91
2022/06/19 17:59:44;;;;;;;6.73;5.53;;;34.60;43.80;;;;;;6056877;23;21033;-89
2022/06/19 18:02:24;;;;;;;5.90;5.40;;;34.50;44.00;;;;;;6056997;23;20449;-92
2022/06/19 18:04:54;;;;;;;7.17;5.50;;;34.30;44.10;;;;;;6059178;23;20462;-91
2022/06/19 18:07:26;;;;;;;9.10;5.57;;;34.20;43.30;;;;;;6057795;23;20471;-87
2022/06/19 18:09:58;;;;;;;6.10;5.50;;;34.10;44.00;;;;;;6070847;23;20505;-92
2022/06/19 18:12:28;;;;;;;11.07;7.53;;;34.00;45.40;;;;;;6067563;23;20432;-90
2022/06/19 18:14:57;;;;;;;9.30;6.00;;;34.00;44.80;;;;;;6060101;23;20482;-92
2022/06/19 18:20:14;;;;;;;7.33;5.20;;;33.80;44.90;;;;;;6057068;23;20441;-85
2022/06/19 18:22:43;;;;;;;6.20;5.07;;;33.70;45.00;;;;;;6059551;23;20535;-89
2022/06/19 18:25:10;;;;;;;9.47;5.83;;;33.60;44.80;;;;;;6063399;23;20600;-90
2022/06/19 18:27:40;;;;;;;10.07;5.10;;;33.60;44.90;;;;;;6059409;23;20549;-88
2022/06/19 18:30:14;;;;;;;8.47;5.60;;;33.60;45.20;;;;;;6064293;23;20972;-87
2022/06/19 18:32:42;;;;;;;8.40;5.43;;;33.40;45.00;;;;;;6064636;23;21110;-85
2022/06/19 18:35:14;;;;;;;8.73;5.40;;;33.40;45.70;;;;;;6060887;23;20481;-89
2022/06/19 18:37:46;;;;;;;6.30;5.70;;;33.30;45.70;;;;;;6057427;23;20474;-90
2022/06/19 18:40:15;;;;;;;6.40;5.50;;;33.30;45.80;;;;;;6067336;23;20798;-90
2022/06/19 18:42:42;;;;;;;6.57;5.37;;;33.20;46.00;;;;;;6067418;23;20451;-90
2022/06/19 18:45:10;;;;;;;8.03;5.53;;;33.10;45.80;;;;;;6061729;23;20471;-89
2022/06/19 18:47:39;;;;;;;7.70;5.50;;;33.00;45.70;;;;;;6061641;23;20537;-89
2022/06/19 18:50:09;;;;;;;6.47;5.40;;;33.00;45.90;;;;;;6055001;23;20816;-90
2022/06/19 18:52:40;;;;;;;9.53;5.43;;;32.90;45.80;;;;;;6047095;23;20803;-89
2022/06/19 18:55:18;;;;;;;5.53;5.03;;;32.80;46.00;;;;;;6058701;23;20451;-91
2022/06/19 18:57:45;;;;;;;5.63;5.00;;;32.80;46.30;;;;;;6049607;23;20814;-90
2022/06/19 19:00:21;;;;;;;7.23;5.00;;;32.80;46.30;;;;;;6060838;23;21029;-92
2022/06/19 19:02:48;;;;;;;5.90;5.37;;;32.70;46.40;;;;;;6050544;23;20984;-88
2022/06/19 19:05:19;;;;;;;5.87;5.00;;;32.60;46.80;;;;;;6056913;23;20473;-88
2022/06/19 19:07:50;;;;;;;7.80;5.37;;;32.60;47.00;;;;;;6047068;23;20936;-89
2022/06/19 19:10:22;;;;;;;6.30;5.40;;;32.50;47.10;;;;;;6052401;23;20519;-90
2022/06/19 19:12:50;;;;;;;8.43;5.43;;;32.40;47.60;;;;;;6059672;23;20447;-89
2022/06/19 19:15:24;;;;;;;5.80;5.30;;;32.40;48.00;;;;;;6056215;23;20470;-90
2022/06/19 19:17:52;;;;;;;7.23;5.80;;;32.30;48.20;;;;;;6054310;23;20538;-90
2022/06/19 19:20:23;;;;;;;8.23;5.40;;;32.20;48.40;;;;;;6056771;23;20523;-89
2022/06/19 19:22:51;;;;;;;6.70;5.60;;;32.20;48.30;;;;;;6055683;23;20933;-90
2022/06/19 19:25:20;;;;;;;10.23;6.17;;;32.10;48.50;;;;;;6056059;23;20498;-90
2022/06/19 19:27:48;;;;;;;7.30;6.03;;;32.10;48.90;;;;;;6050601;23;20577;-88
2022/06/19 19:30:19;;;;;;;8.03;5.90;;;32.00;49.20;;;;;;6050391;23;20435;-89
2022/06/19 19:32:47;;;;;;;7.67;6.70;;;31.90;48.80;;;;;;6049915;23;21067;-88
2022/06/19 19:35:20;;;;;;;7.57;6.80;;;31.90;49.30;;;;;;6056573;23;20938;-90
2022/06/19 19:37:48;;;;;;;9.93;6.47;;;31.90;50.70;;;;;;6057119;23;20451;-90
2022/06/19 19:40:16;;;;;;;10.43;6.60;;;31.70;50.50;;;;;;6057264;23;20524;-89
2022/06/19 19:42:45;;;;;;;8.03;6.80;;;31.50;50.60;;;;;;6055039;23;20447;-89
2022/06/19 19:45:13;;;;;;;7.53;6.33;;;31.40;50.00;;;;;;6051255;23;20956;-89
2022/06/19 19:47:42;;;;;;;6.83;6.23;;;31.20;50.10;;;;;;6049485;23;20470;-88
2022/06/19 19:50:15;;;;;;;6.67;6.00;;;31.10;50.00;;;;;;6054325;23;20489;-82
2022/06/19 19:52:45;;;;;;;9.93;6.63;;;31.00;50.20;;;;;;6052808;23;20447;-85
2022/06/19 19:55:17;;;;;;;9.43;6.40;;;31.00;50.10;;;;;;6052931;23;21330;-86
2022/06/19 19:57:46;;;;;;;7.13;6.33;;;30.90;50.10;;;;;;6052918;23;20561;-85
2022/06/19 20:00:14;;;;;;;7.23;6.63;;;30.90;50.40;;;;;;6056106;23;20448;-86
2022/06/19 20:02:41;;;;;;;7.03;6.33;;;30.80;50.40;;;;;;6054638;23;20760;-86
2022/06/19 20:05:09;;;;;;;7.50;6.30;;;30.80;50.80;;;;;;6054370;23;20470;-86
2022/06/19 20:10:35;;;;;;;9.07;6.30;;;30.70;52.00;;;;;;6050662;23;20440;-82
2022/06/19 20:13:05;;;;;;;8.30;7.53;;;30.60;52.70;;;;;;6058680;23;20478;-82
2022/06/19 20:15:32;;;;;;;9.83;6.80;;;30.50;53.00;;;;;;6055604;23;20443;-82
2022/06/19 20:18:02;;;;;;;8.53;6.93;;;30.50;53.10;;;;;;6066199;23;20491;-84
2022/06/19 20:20:33;;;;;;;7.53;6.83;;;30.40;53.00;;;;;;6079114;23;21130;-85
2022/06/19 20:23:01;;;;;;;8.27;7.27;;;30.40;53.10;;;;;;6057563;23;20446;-84
2022/06/19 20:25:33;;;;;;;7.83;6.50;;;30.40;53.40;;;;;;6059893;23;20570;-84
2022/06/19 20:28:04;;;;;;;8.93;7.03;;;30.40;53.00;;;;;;6063865;23;20459;-84
2022/06/19 20:30:36;;;;;;;7.93;7.23;;;30.40;53.10;;;;;;6072967;23;20920;-84
2022/06/19 20:33:04;;;;;;;7.90;7.20;;;30.40;53.30;;;;;;6074125;23;20447;-83
2022/06/19 20:35:33;;;;;;;8.57;7.40;;;30.40;53.60;;;;;;6058486;23;20443;-84
2022/06/19 20:38:07;;;;;;;8.93;7.20;;;30.40;53.70;;;;;;6060543;23;20808;-84
2022/06/19 20:40:37;;;;;;;8.13;7.40;;;30.30;53.40;;;;;;6068827;23;20473;-84
2022/06/19 20:43:03;;;;;;;7.40;6.70;;;30.30;53.60;;;;;;6062698;23;20629;-84
2022/06/19 20:45:30;;;;;;;8.57;7.67;;;30.20;53.70;;;;;;6060832;23;20467;-84
2022/06/19 20:48:03;;;;;;;9.80;7.27;;;30.30;54.80;;;;;;6086363;23;20489;-84
2022/06/19 20:50:36;;;;;;;13.00;7.57;;;30.20;54.70;;;;;;6048049;23;20437;-83
2022/06/19 20:53:05;;;;;;;11.33;7.43;;;30.10;54.70;;;;;;6060076;23;20435;-84
2022/06/19 20:55:35;;;;;;;7.73;6.90;;;30.10;55.20;;;;;;6064214;23;20455;-84